Ana Sayfa
METAR-TAF:

METAR-TAF

Havaalanları :

Bağdat Uluslararası Havaalanı

Bağdat, Irak

Enlem: 33-15-45N, Boylam: 44-14-04E, yükseklik: 35 m

Güncel hava durumu gözlemi

Rapor saat 05:00 UTC de 44 dakika önce yapıldı.
Rüzgar doğu/güneydoğudan 7 kt
Sıcaklık 10°C
Nem 93%
Basınç 1015 hPa
Görüş mesafesi 10 km veya daha fazla
2500 ft yükseklikte çok bulutlu

METAR: ORBI 220500Z 11007KT 9999 OVC025 10/09 Q1015 TEMPO SHRA

Saat: 08:44 (05:44 UTC)

Tahmin

Rapor saat 04:30 UTC de 1 saat ve 14 dakika önce yapıldı.
Ayın 22'si saat 06 UTC'den ayın 23'si saat 06 UTC'ye kadar geçerli Tahmin
Rüzgar güney/güneydoğudan 10 kt
Görüş mesafesi: 7000 m
2000 ft yükseklikte parçalı çok bulutlu
5000 ft yükseklikte çok bulutlu
Geçici
olarak saat 30 ve 00 UTC arası
yağmur
Olasılık 40%
olarak saat TS ve UTC arası
2000 ft yükseklikte parçalı bulutlu, Kümülonimbus.

TAF: ORBI 220430Z 2206/2306 16010KT 7000 BKN020 OVC050 TEMPO 3000 RA PROB40 TS SCT020CB

4.000'den fazla havaalanı için hava durumu gözlemleri ve tahminleri (METAR ve TAF raporları).

Kullanılabilir istasyonlar harita üzerinde sarı ve kırmızı noktalarla gösterilir.

İstasyonun adını görmek için fareyi noktanın üzerinde gezdirin.

Sonrasında hava gözlem ve tahminlerini görmek için tıklayın.

Haritayı değiştirmek için: yaklaştırmak için siyah artı işaretli yeşil düğmeye ve uzaklaştırmak için de eksi işaretli düğmeye hızla tıklayın; bitişik haritalar için yeşil okları kullanın.


METAR-TAF: